Time;durP1;ratioP1;P1;durP2;ratioP2;P2;SDS_P1;SDS_P2;PMS_P1;PMS_P2;Temp;Humidity;BMP_temperature;BMP_pressure;BME280_temperature;BME280_humidity;BME280_pressure;Samples;Min_cycle;Max_cycle;Signal;HPM_P1;HPM_P2
2022/10/22 00:01:27;;;;;;;6.00;1.75;;;;;;;;;;4896813;29;20409;-63
2022/10/22 00:03:54;;;;;;;4.57;1.60;;;;;;;;;;4895146;29;20049;-64
2022/10/22 00:06:20;;;;;;;4.43;1.60;;;;;;;;;;4895254;29;20081;-64
2022/10/22 00:08:47;;;;;;;2.15;1.45;;;;;;;;;;4895441;29;20045;-62
2022/10/22 00:11:14;;;;;;;4.40;1.65;;;;;;;;;;4895408;29;20394;-62
2022/10/22 00:13:41;;;;;;;2.38;1.30;;;;;;;;;;4895971;29;20076;-62
2022/10/22 00:16:08;;;;;;;4.53;1.50;;;;;;;;;;4897646;29;20072;-62
2022/10/22 00:18:35;;;;;;;7.57;1.98;;;;;;;;;;4898819;29;20048;-65
2022/10/22 00:21:02;;;;;;;3.03;1.52;;;;;;;;;;4898768;29;20044;-65
2022/10/22 00:23:28;;;;;;;3.70;1.40;;;;;;;;;;4899747;29;20438;-64
2022/10/22 00:25:55;;;;;;;2.35;1.50;;;;;;;;;;4899930;29;20072;-62
2022/10/22 00:28:22;;;;;;;7.75;1.55;;;;;;;;;;4898786;29;20470;-62
2022/10/22 00:30:54;;;;;;;11.25;1.95;;;;;;;;;;4898628;29;20052;-62
2022/10/22 00:33:20;;;;;;;2.88;1.63;;;;;;;;;;4899271;29;20040;-63
2022/10/22 00:35:46;;;;;;;3.25;1.40;;;;;;;;;;4898648;29;20052;-62
2022/10/22 00:38:13;;;;;;;3.75;1.90;;;;;;;;;;4898683;29;20064;-62
2022/10/22 00:40:39;;;;;;;3.20;1.58;;;;;;;;;;4900011;29;20040;-63
2022/10/22 00:43:09;;;;;;;2.97;1.48;;;;;;;;;;4899163;29;20383;-63
2022/10/22 00:45:35;;;;;;;7.07;1.65;;;;;;;;;;4899766;29;20577;-63
2022/10/22 00:48:09;;;;;;;2.75;1.75;;;;;;;;;;4898287;29;20049;-63
2022/10/22 00:50:42;;;;;;;4.15;1.60;;;;;;;;;;4899498;29;20045;-62
2022/10/22 00:53:19;;;;;;;5.65;1.52;;;;;;;;;;4899081;29;20045;-63
2022/10/22 00:55:46;;;;;;;2.78;1.60;;;;;;;;;;4899554;29;20493;-63
2022/10/22 00:58:14;;;;;;;6.35;1.80;;;;;;;;;;4899302;29;20055;-63
2022/10/22 01:00:41;;;;;;;5.68;1.25;;;;;;;;;;4898034;29;20049;-63
2022/10/22 01:03:07;;;;;;;8.85;1.85;;;;;;;;;;4898891;29;20454;-62
2022/10/22 01:05:42;;;;;;;3.42;1.48;;;;;;;;;;4899222;29;20040;-63
2022/10/22 01:08:11;;;;;;;5.57;1.30;;;;;;;;;;4897775;29;20053;-63
2022/10/22 01:10:50;;;;;;;2.42;1.20;;;;;;;;;;4899381;29;20413;-62
2022/10/22 01:13:46;;;;;;;2.95;1.40;;;;;;;;;;4898588;29;20048;-63
2022/10/22 01:16:22;;;;;;;2.80;1.30;;;;;;;;;;4894428;29;20127;-62
2022/10/22 01:18:57;;;;;;;4.07;1.30;;;;;;;;;;4899249;29;20439;-63
2022/10/22 01:21:30;;;;;;;1.92;1.23;;;;;;;;;;4899314;29;20056;-63
2022/10/22 01:24:15;;;;;;;2.50;1.23;;;;;;;;;;4897201;29;20100;-63
2022/10/22 01:26:51;;;;;;;2.45;1.08;;;;;;;;;;4897594;29;20459;-63
2022/10/22 01:29:20;;;;;;;2.08;0.98;;;;;;;;;;4896899;29;20131;-63
2022/10/22 01:31:50;;;;;;;1.90;1.27;;;;;;;;;;4898748;29;20041;-62
2022/10/22 01:34:17;;;;;;;5.03;1.10;;;;;;;;;;4897015;29;20051;-62
2022/10/22 01:36:45;;;;;;;2.63;1.10;;;;;;;;;;4897412;29;20055;-62
2022/10/22 01:39:13;;;;;;;3.33;1.13;;;;;;;;;;4898424;29;20048;-62
2022/10/22 01:41:42;;;;;;;1.90;0.90;;;;;;;;;;4897308;29;20057;-63
2022/10/22 01:44:21;;;;;;;3.90;1.25;;;;;;;;;;4898211;29;20049;-62
2022/10/22 01:46:50;;;;;;;1.70;0.90;;;;;;;;;;4897177;29;20044;-63
2022/10/22 01:49:24;;;;;;;2.13;1.10;;;;;;;;;;4897185;29;20481;-62
2022/10/22 01:52:13;;;;;;;3.60;0.73;;;;;;;;;;4898529;29;20048;-62
2022/10/22 01:54:42;;;;;;;3.45;0.77;;;;;;;;;;4897232;29;20084;-62
2022/10/22 01:57:21;;;;;;;2.03;0.90;;;;;;;;;;4897010;29;20505;-63
2022/10/22 01:59:51;;;;;;;1.73;0.80;;;;;;;;;;4898208;29;20052;-62
2022/10/22 02:02:21;;;;;;;1.85;0.80;;;;;;;;;;4896393;29;20056;-62
2022/10/22 02:04:49;;;;;;;1.10;0.77;;;;;;;;;;4897309;29;20175;-63
2022/10/22 02:07:18;;;;;;;2.17;0.85;;;;;;;;;;4881637;29;20048;-63
2022/10/22 02:09:44;;;;;;;4.10;0.90;;;;;;;;;;4898136;29;20512;-64
2022/10/22 02:12:12;;;;;;;2.40;1.08;;;;;;;;;;4897974;29;20056;-64
2022/10/22 02:14:40;;;;;;;2.53;0.80;;;;;;;;;;4898350;29;20457;-65
2022/10/22 02:17:09;;;;;;;1.58;0.90;;;;;;;;;;4899172;29;20067;-65
2022/10/22 02:19:45;;;;;;;2.20;1.05;;;;;;;;;;4901498;29;20055;-64
2022/10/22 02:22:11;;;;;;;2.92;1.33;;;;;;;;;;4897992;29;20048;-63
2022/10/22 02:24:38;;;;;;;3.67;1.95;;;;;;;;;;4901026;29;20056;-63
2022/10/22 02:27:04;;;;;;;4.07;1.80;;;;;;;;;;4902174;29;20040;-63
2022/10/22 02:29:35;;;;;;;2.60;1.40;;;;;;;;;;4901734;29;20049;-64
2022/10/22 02:32:02;;;;;;;3.75;1.50;;;;;;;;;;4900929;29;20143;-63
2022/10/22 02:34:30;;;;;;;2.25;1.00;;;;;;;;;;4901462;29;20088;-63
2022/10/22 02:36:58;;;;;;;2.13;1.10;;;;;;;;;;4900442;29;20096;-63
2022/10/22 02:39:25;;;;;;;2.50;1.10;;;;;;;;;;4884004;29;20048;-63
2022/10/22 02:41:51;;;;;;;3.33;1.30;;;;;;;;;;4900896;29;20053;-64
2022/10/22 02:44:20;;;;;;;2.10;0.93;;;;;;;;;;4901109;29;20458;-63
2022/10/22 02:46:47;;;;;;;2.08;1.05;;;;;;;;;;4900630;29;20075;-64
2022/10/22 02:49:13;;;;;;;1.77;0.65;;;;;;;;;;4900539;29;20462;-64
2022/10/22 02:51:39;;;;;;;1.17;0.60;;;;;;;;;;4898981;29;20122;-64
2022/10/22 02:54:06;;;;;;;0.65;0.60;;;;;;;;;;4918384;23;20045;-63
2022/10/22 02:56:32;;;;;;;2.15;0.68;;;;;;;;;;4896045;29;20412;-62
2022/10/22 02:58:59;;;;;;;3.50;0.80;;;;;;;;;;4897275;29;20040;-62
2022/10/22 03:01:25;;;;;;;1.38;0.80;;;;;;;;;;4899783;29;20044;-64
2022/10/22 03:03:52;;;;;;;1.15;0.90;;;;;;;;;;4898580;29;20052;-63
2022/10/22 03:06:19;;;;;;;2.35;1.00;;;;;;;;;;4884648;29;20056;-63
2022/10/22 03:08:45;;;;;;;2.88;1.20;;;;;;;;;;4884965;29;20086;-63
2022/10/22 03:11:12;;;;;;;3.58;1.10;;;;;;;;;;4881734;29;20140;-63
2022/10/22 03:13:38;;;;;;;1.70;0.77;;;;;;;;;;4879131;29;20053;-62
2022/10/22 03:16:05;;;;;;;2.53;1.20;;;;;;;;;;4881570;29;20041;-63
2022/10/22 03:18:31;;;;;;;3.60;1.23;;;;;;;;;;4879286;29;20049;-62
2022/10/22 03:21:21;;;;;;;2.65;1.40;;;;;;;;;;4881921;29;20501;-63
2022/10/22 03:23:47;;;;;;;3.97;1.10;;;;;;;;;;4872480;29;20061;-62
2022/10/22 03:26:14;;;;;;;3.63;1.20;;;;;;;;;;4881932;29;20191;-62
2022/10/22 03:28:40;;;;;;;1.20;1.10;;;;;;;;;;4879213;29;20102;-63
2022/10/22 03:31:07;;;;;;;2.53;1.10;;;;;;;;;;4877189;29;20045;-63
2022/10/22 03:33:33;;;;;;;3.75;0.80;;;;;;;;;;4877582;29;20045;-63
2022/10/22 03:36:00;;;;;;;2.28;1.48;;;;;;;;;;4878076;29;20064;-63
2022/10/22 03:38:27;;;;;;;3.08;1.40;;;;;;;;;;4878429;29;20448;-62
2022/10/22 03:40:54;;;;;;;3.28;1.45;;;;;;;;;;4878164;29;20078;-62
2022/10/22 03:43:20;;;;;;;3.42;1.08;;;;;;;;;;4877685;29;20068;-62
2022/10/22 03:45:46;;;;;;;3.33;1.65;;;;;;;;;;4877941;29;20068;-61
2022/10/22 03:48:13;;;;;;;4.47;1.08;;;;;;;;;;4876774;29;20049;-62
2022/10/22 03:50:39;;;;;;;4.55;1.63;;;;;;;;;;4877155;29;20060;-62
2022/10/22 03:53:09;;;;;;;2.75;1.40;;;;;;;;;;4881155;29;20045;-63
2022/10/22 03:55:37;;;;;;;5.32;2.00;;;;;;;;;;4881586;29;20479;-62
2022/10/22 03:58:04;;;;;;;3.85;2.15;;;;;;;;;;4881633;29;20405;-61
2022/10/22 04:03:25;;;;;;;2.25;1.70;;;;;;;;;;4963564;23;20083;-64
2022/10/22 04:05:52;;;;;;;1.85;0.90;;;;;;;;;;4900402;29;20045;-64
2022/10/22 04:08:18;;;;;;;3.28;1.02;;;;;;;;;;4899116;29;20036;-65
2022/10/22 04:10:49;;;;;;;1.83;0.80;;;;;;;;;;4900406;29;20049;-64
2022/10/22 04:13:16;;;;;;;2.08;0.75;;;;;;;;;;4898953;29;20040;-64
2022/10/22 04:15:42;;;;;;;2.25;1.48;;;;;;;;;;4900314;29;20049;-65
2022/10/22 04:18:09;;;;;;;1.10;0.82;;;;;;;;;;4898852;29;20048;-66
2022/10/22 04:20:35;;;;;;;5.05;1.33;;;;;;;;;;4900185;29;20525;-65
2022/10/22 04:23:02;;;;;;;1.83;1.50;;;;;;;;;;4883465;29;20057;-65
2022/10/22 04:25:28;;;;;;;1.80;1.20;;;;;;;;;;4914531;29;20053;-64
2022/10/22 04:27:54;;;;;;;3.20;0.90;;;;;;;;;;4898656;29;20052;-64
2022/10/22 04:30:21;;;;;;;5.28;2.45;;;;;;;;;;4900061;29;20055;-64
2022/10/22 04:32:47;;;;;;;4.28;2.03;;;;;;;;;;4898352;29;20517;-64
2022/10/22 04:35:14;;;;;;;3.72;1.17;;;;;;;;;;4883423;29;20048;-64
2022/10/22 04:37:40;;;;;;;3.97;1.70;;;;;;;;;;4899880;29;20052;-64
2022/10/22 04:40:08;;;;;;;2.95;2.15;;;;;;;;;;4898823;29;20056;-64
2022/10/22 04:42:34;;;;;;;2.08;1.08;;;;;;;;;;4899721;29;20048;-63
2022/10/22 04:45:01;;;;;;;3.42;1.20;;;;;;;;;;4899641;29;20055;-63
2022/10/22 04:47:27;;;;;;;1.15;1.05;;;;;;;;;;4899649;29;20036;-63
2022/10/22 04:49:53;;;;;;;1.17;1.00;;;;;;;;;;4898461;29;20048;-64
2022/10/22 04:52:20;;;;;;;2.80;1.40;;;;;;;;;;4899312;29;20057;-63
2022/10/22 04:54:46;;;;;;;1.08;0.80;;;;;;;;;;4899467;29;20088;-63
2022/10/22 04:57:13;;;;;;;1.75;1.30;;;;;;;;;;4899523;29;20052;-63
2022/10/22 04:59:39;;;;;;;2.30;1.60;;;;;;;;;;4899295;29;20446;-63
2022/10/22 05:02:06;;;;;;;1.95;1.40;;;;;;;;;;4899024;29;20052;-63
2022/10/22 05:04:32;;;;;;;3.05;1.60;;;;;;;;;;4899352;29;20044;-64
2022/10/22 05:06:59;;;;;;;2.55;0.90;;;;;;;;;;4899233;29;20047;-64
2022/10/22 05:09:25;;;;;;;1.95;0.98;;;;;;;;;;4913741;29;20048;-64
2022/10/22 05:11:52;;;;;;;3.45;0.80;;;;;;;;;;4899088;29;20056;-64
2022/10/22 05:14:22;;;;;;;1.80;1.00;;;;;;;;;;4898776;29;20055;-64
2022/10/22 05:16:49;;;;;;;3.55;1.00;;;;;;;;;;4897837;29;20064;-64
2022/10/22 05:19:18;;;;;;;3.97;1.85;;;;;;;;;;4898107;29;20048;-64
2022/10/22 05:21:45;;;;;;;1.15;0.90;;;;;;;;;;4899032;29;20521;-64
2022/10/22 05:24:11;;;;;;;2.70;1.15;;;;;;;;;;4913587;29;20045;-63
2022/10/22 05:26:38;;;;;;;0.90;0.68;;;;;;;;;;4899085;29;20048;-63
2022/10/22 05:29:04;;;;;;;3.47;1.00;;;;;;;;;;4898840;29;20441;-63
2022/10/22 05:31:31;;;;;;;2.80;0.60;;;;;;;;;;4898720;29;20049;-64
2022/10/22 05:33:57;;;;;;;0.60;0.60;;;;;;;;;;4898553;29;20040;-63
2022/10/22 05:36:23;;;;;;;2.15;0.80;;;;;;;;;;4898698;29;20497;-63
2022/10/22 05:38:50;;;;;;;1.02;0.60;;;;;;;;;;4881850;29;20053;-63
2022/10/22 05:41:18;;;;;;;4.20;1.20;;;;;;;;;;4897229;29;20052;-64
2022/10/22 05:43:45;;;;;;;2.50;1.00;;;;;;;;;;4912571;29;20472;-64
2022/10/22 05:46:13;;;;;;;1.20;0.70;;;;;;;;;;4898409;29;20096;-64
2022/10/22 05:48:50;;;;;;;2.10;0.80;;;;;;;;;;4897121;29;20121;-64
2022/10/22 05:51:17;;;;;;;0.63;0.60;;;;;;;;;;4898371;29;20053;-63
2022/10/22 05:53:44;;;;;;;1.20;0.70;;;;;;;;;;4898030;29;20390;-63
2022/10/22 05:56:12;;;;;;;2.38;0.90;;;;;;;;;;4898317;29;20081;-63
2022/10/22 05:58:38;;;;;;;1.30;0.90;;;;;;;;;;4898207;29;20461;-63
2022/10/22 06:01:15;;;;;;;2.65;0.85;;;;;;;;;;4896972;29;20052;-63
2022/10/22 06:03:41;;;;;;;2.67;0.85;;;;;;;;;;4912383;29;20501;-63
2022/10/22 06:06:17;;;;;;;1.88;0.82;;;;;;;;;;4881397;29;20052;-64
2022/10/22 06:08:45;;;;;;;1.70;0.70;;;;;;;;;;4897120;29;20104;-64
2022/10/22 06:11:12;;;;;;;6.55;0.98;;;;;;;;;;4896724;29;20469;-64
2022/10/22 06:13:38;;;;;;;2.53;1.45;;;;;;;;;;4895930;29;20048;-63
2022/10/22 06:16:05;;;;;;;3.58;1.42;;;;;;;;;;4898291;29;20041;-63
2022/10/22 06:18:31;;;;;;;1.58;1.08;;;;;;;;;;4896835;29;20060;-63
2022/10/22 06:21:02;;;;;;;3.40;1.92;;;;;;;;;;4897947;29;20386;-63
2022/10/22 06:23:29;;;;;;;3.42;1.33;;;;;;;;;;4897613;29;20089;-64
2022/10/22 06:25:56;;;;;;;2.50;1.42;;;;;;;;;;4896752;29;20048;-63
2022/10/22 06:28:23;;;;;;;5.03;1.90;;;;;;;;;;4897712;29;20041;-64
2022/10/22 06:30:56;;;;;;;3.47;0.70;;;;;;;;;;4897639;29;20053;-64
2022/10/22 06:33:22;;;;;;;4.65;0.70;;;;;;;;;;4897135;29;20041;-64
2022/10/22 06:35:49;;;;;;;1.42;0.60;;;;;;;;;;4897657;29;20045;-63
2022/10/22 06:38:15;;;;;;;1.08;0.75;;;;;;;;;;4896265;29;20059;-63
2022/10/22 06:40:43;;;;;;;0.60;0.60;;;;;;;;;;4897387;29;20386;-62
2022/10/22 06:43:13;;;;;;;2.38;0.70;;;;;;;;;;4895955;29;20049;-63
2022/10/22 06:45:40;;;;;;;2.15;0.90;;;;;;;;;;4897378;29;20048;-62
2022/10/22 06:48:06;;;;;;;0.95;0.60;;;;;;;;;;4880606;29;20044;-62
2022/10/22 06:50:33;;;;;;;0.73;0.73;;;;;;;;;;4897455;29;20056;-63
2022/10/22 06:53:00;;;;;;;4.32;1.15;;;;;;;;;;4895785;29;20462;-63
2022/10/22 06:55:26;;;;;;;3.25;1.13;;;;;;;;;;4896014;29;20044;-63
2022/10/22 06:57:54;;;;;;;2.13;1.23;;;;;;;;;;4896210;29;20147;-63
2022/10/22 07:00:21;;;;;;;4.13;1.85;;;;;;;;;;4880428;29;20057;-63
2022/10/22 07:02:54;;;;;;;4.90;1.20;;;;;;;;;;4895759;29;20057;-63
2022/10/22 07:05:24;;;;;;;1.60;0.82;;;;;;;;;;4897317;29;20078;-63
2022/10/22 07:07:51;;;;;;;3.50;1.08;;;;;;;;;;4911522;29;20482;-63
2022/10/22 07:10:17;;;;;;;3.10;1.70;;;;;;;;;;4911729;29;20045;-63
2022/10/22 07:12:44;;;;;;;2.05;0.77;;;;;;;;;;4896829;29;20044;-63
2022/10/22 07:15:10;;;;;;;2.38;1.15;;;;;;;;;;4895681;29;20144;-62
2022/10/22 07:17:37;;;;;;;2.40;1.20;;;;;;;;;;4896168;29;20140;-63
2022/10/22 07:20:08;;;;;;;3.40;0.70;;;;;;;;;;4880901;29;20048;-63
2022/10/22 07:22:35;;;;;;;1.77;1.00;;;;;;;;;;4879735;29;20094;-63
2022/10/22 07:25:02;;;;;;;3.17;1.00;;;;;;;;;;4879984;29;20417;-63
2022/10/22 07:27:32;;;;;;;1.77;0.77;;;;;;;;;;4884246;29;20108;-63
2022/10/22 07:30:00;;;;;;;2.58;1.88;;;;;;;;;;4900826;29;20040;-62
2022/10/22 07:32:26;;;;;;;2.38;1.42;;;;;;;;;;4900422;29;20083;-62
2022/10/22 07:34:53;;;;;;;2.00;1.40;;;;;;;;;;4900948;29;20450;-64
2022/10/22 07:37:22;;;;;;;3.22;2.05;;;;;;;;;;4900843;29;20060;-63
2022/10/22 07:39:49;;;;;;;4.10;1.20;;;;;;;;;;4900709;29;20122;-63
2022/10/22 07:42:16;;;;;;;4.05;1.95;;;;;;;;;;4900011;29;20104;-64
2022/10/22 07:44:42;;;;;;;3.10;2.20;;;;;;;;;;4899446;29;20135;-63
2022/10/22 07:47:08;;;;;;;2.65;1.60;;;;;;;;;;4915327;29;20052;-63
2022/10/22 07:49:35;;;;;;;3.53;1.70;;;;;;;;;;4914979;29;20048;-63
2022/10/22 07:52:01;;;;;;;4.88;1.60;;;;;;;;;;4900285;29;20536;-63
2022/10/22 07:54:28;;;;;;;6.03;2.72;;;;;;;;;;4899495;29;20044;-64
2022/10/22 07:56:54;;;;;;;5.93;2.75;;;;;;;;;;4900610;29;20116;-64
2022/10/22 07:59:21;;;;;;;5.43;2.83;;;;;;;;;;4883960;29;20424;-63
2022/10/22 08:01:47;;;;;;;3.70;1.40;;;;;;;;;;4900494;29;20619;-63
2022/10/22 08:04:13;;;;;;;2.33;1.10;;;;;;;;;;4899896;29;20119;-62
2022/10/22 08:06:40;;;;;;;0.95;0.75;;;;;;;;;;4900748;29;20055;-63
2022/10/22 08:09:12;;;;;;;1.38;0.70;;;;;;;;;;4900957;29;20059;-64
2022/10/22 08:11:39;;;;;;;1.80;0.90;;;;;;;;;;4899572;29;20052;-64
2022/10/22 08:14:06;;;;;;;3.58;1.02;;;;;;;;;;4898839;29;20421;-64
2022/10/22 08:16:32;;;;;;;2.22;0.80;;;;;;;;;;4884958;29;20055;-63
2022/10/22 08:19:08;;;;;;;7.88;1.00;;;;;;;;;;4914476;29;20060;-63
2022/10/22 08:21:34;;;;;;;5.05;1.00;;;;;;;;;;4899402;29;20048;-63
2022/10/22 08:24:01;;;;;;;2.78;1.10;;;;;;;;;;4916918;29;20442;-63
2022/10/22 08:26:27;;;;;;;1.75;1.10;;;;;;;;;;4903909;29;20051;-63
2022/10/22 08:28:54;;;;;;;2.75;1.00;;;;;;;;;;4906202;29;20052;-64
2022/10/22 08:31:20;;;;;;;1.85;0.80;;;;;;;;;;4901100;29;20041;-63
2022/10/22 08:33:46;;;;;;;1.67;0.90;;;;;;;;;;4884756;29;20553;-63
2022/10/22 08:36:13;;;;;;;3.35;0.95;;;;;;;;;;4881648;29;20045;-63
2022/10/22 08:38:39;;;;;;;1.17;0.82;;;;;;;;;;4881137;29;20053;-64
2022/10/22 08:41:14;;;;;;;1.17;0.90;;;;;;;;;;4865441;29;20045;-63
2022/10/22 08:44:03;;;;;;;3.45;0.95;;;;;;;;;;4883774;29;20048;-63
2022/10/22 08:46:49;;;;;;;3.13;1.40;;;;;;;;;;4883407;29;20067;-64
2022/10/22 08:49:19;;;;;;;1.95;1.13;;;;;;;;;;4883358;29;20112;-62
2022/10/22 08:51:46;;;;;;;3.90;1.00;;;;;;;;;;4884188;29;20052;-63
2022/10/22 08:54:17;;;;;;;3.40;1.02;;;;;;;;;;4884187;29;20498;-64
2022/10/22 08:56:46;;;;;;;1.25;0.90;;;;;;;;;;4884113;29;20045;-62
2022/10/22 08:59:18;;;;;;;2.00;0.98;;;;;;;;;;4881660;29;20049;-63
2022/10/22 09:01:45;;;;;;;3.40;1.00;;;;;;;;;;4883482;29;20053;-62
2022/10/22 09:04:32;;;;;;;1.95;0.93;;;;;;;;;;4881120;29;20052;-62
2022/10/22 09:06:59;;;;;;;2.28;1.33;;;;;;;;;;4880224;29;20063;-62
2022/10/22 09:09:28;;;;;;;2.05;1.27;;;;;;;;;;4879588;29;20045;-62
2022/10/22 09:11:56;;;;;;;3.67;1.08;;;;;;;;;;4879348;29;20049;-62
2022/10/22 09:14:23;;;;;;;2.88;0.90;;;;;;;;;;4879324;29;20410;-63
2022/10/22 09:16:52;;;;;;;2.47;0.93;;;;;;;;;;4880400;29;20041;-63
2022/10/22 09:19:40;;;;;;;2.58;1.10;;;;;;;;;;4879417;29;20406;-63
2022/10/22 09:22:24;;;;;;;3.92;0.98;;;;;;;;;;4878263;29;20068;-63
2022/10/22 09:24:57;;;;;;;3.00;1.23;;;;;;;;;;4879254;29;20061;-64
2022/10/22 09:27:29;;;;;;;3.92;1.23;;;;;;;;;;4881812;29;20479;-63
2022/10/22 09:29:55;;;;;;;2.03;1.02;;;;;;;;;;4882860;29;20049;-64
2022/10/22 09:32:22;;;;;;;6.18;1.00;;;;;;;;;;4882637;29;20057;-66
2022/10/22 09:34:49;;;;;;;2.50;1.40;;;;;;;;;;4883202;29;20063;-64
2022/10/22 09:37:16;;;;;;;6.32;1.40;;;;;;;;;;4882532;29;20045;-64
2022/10/22 09:39:44;;;;;;;3.30;1.05;;;;;;;;;;4881610;29;20053;-64
2022/10/22 09:42:13;;;;;;;2.00;1.02;;;;;;;;;;4883066;29;20045;-64
2022/10/22 09:44:40;;;;;;;4.40;1.00;;;;;;;;;;4883491;29;20049;-65
2022/10/22 09:47:25;;;;;;;3.83;1.20;;;;;;;;;;4883832;29;20079;-64
2022/10/22 09:50:25;;;;;;;2.00;1.20;;;;;;;;;;4879701;29;20049;-64
2022/10/22 09:52:59;;;;;;;1.63;1.00;;;;;;;;;;4881754;29;20037;-64
2022/10/22 09:55:26;;;;;;;3.60;1.30;;;;;;;;;;4883163;29;20128;-64
2022/10/22 09:57:57;;;;;;;2.50;1.55;;;;;;;;;;4881004;29;20049;-64
2022/10/22 10:00:25;;;;;;;2.63;1.13;;;;;;;;;;4881666;29;20144;-64
2022/10/22 10:02:56;;;;;;;2.95;1.05;;;;;;;;;;4880530;29;20114;-63
2022/10/22 10:05:33;;;;;;;3.83;1.10;;;;;;;;;;4881936;29;20049;-64
2022/10/22 10:08:12;;;;;;;1.88;0.80;;;;;;;;;;4878186;29;20060;-64
2022/10/22 10:10:45;;;;;;;3.05;1.20;;;;;;;;;;4862696;29;20092;-64
2022/10/22 10:13:29;;;;;;;7.82;1.20;;;;;;;;;;4878904;29;20068;-64
2022/10/22 10:15:56;;;;;;;4.28;1.55;;;;;;;;;;4862735;29;20390;-63
2022/10/22 10:18:42;;;;;;;3.45;1.10;;;;;;;;;;4878112;29;20498;-63
2022/10/22 10:21:14;;;;;;;4.93;1.10;;;;;;;;;;4879337;29;20097;-63
2022/10/22 10:23:52;;;;;;;5.55;1.50;;;;;;;;;;4877508;29;20600;-63
2022/10/22 10:26:19;;;;;;;;;;;;;;;;;;4879672;29;20438;-64
2022/10/22 10:28:57;;;;;;;4.13;1.30;;;;;;;;;;4877910;29;19976;-64
2022/10/22 10:31:26;;;;;;;7.60;1.23;;;;;;;;;;4879100;29;20443;-64
2022/10/22 10:34:08;;;;;;;3.80;1.25;;;;;;;;;;4877208;29;20053;-61
2022/10/22 10:36:52;;;;;;;3.03;1.10;;;;;;;;;;4878901;29;20045;-62
2022/10/22 10:39:19;;;;;;;4.50;1.70;;;;;;;;;;4877896;29;20407;-63
2022/10/22 10:41:57;;;;;;;7.45;1.33;;;;;;;;;;4879059;29;20447;-63
2022/10/22 10:44:30;;;;;;;3.13;1.73;;;;;;;;;;4878806;29;20049;-63
2022/10/22 10:47:02;;;;;;;5.78;1.17;;;;;;;;;;4877941;29;20121;-62
2022/10/22 10:49:31;;;;;;;5.28;1.00;;;;;;;;;;4877719;29;20060;-62
2022/10/22 10:52:21;;;;;;;4.38;1.20;;;;;;;;;;4862111;29;20053;-62
2022/10/22 10:54:54;;;;;;;4.25;1.10;;;;;;;;;;4877778;29;20056;-62
2022/10/22 10:57:30;;;;;;;4.20;1.25;;;;;;;;;;4877589;29;20051;-62
2022/10/22 11:00:00;;;;;;;2.78;0.90;;;;;;;;;;4878548;29;20055;-62
2022/10/22 11:02:47;;;;;;;4.28;1.08;;;;;;;;;;4876572;29;20494;-64
2022/10/22 11:05:25;;;;;;;3.25;1.13;;;;;;;;;;4849274;29;20056;-63
2022/10/22 11:07:55;;;;;;;3.90;1.23;;;;;;;;;;4877619;29;20045;-63
2022/10/22 11:10:41;;;;;;;3.45;1.15;;;;;;;;;;4877500;29;20060;-65
2022/10/22 11:13:13;;;;;;;5.18;1.30;;;;;;;;;;4876709;29;20052;-62
2022/10/22 11:15:43;;;;;;;3.92;1.25;;;;;;;;;;4877442;29;20057;-62
2022/10/22 11:18:17;;;;;;;4.47;1.40;;;;;;;;;;4877698;29;20046;-64
2022/10/22 11:20:43;;;;;;;;;;;;;;;;;;4877635;29;20064;-64
2022/10/22 11:23:15;;;;;;;7.13;1.30;;;;;;;;;;4877695;29;20308;-62
2022/10/22 11:25:48;;;;;;;5.63;1.20;;;;;;;;;;4878359;29;20041;-64
2022/10/22 11:28:47;;;;;;;5.13;1.60;;;;;;;;;;4878319;29;20056;-62
2022/10/22 11:31:15;;;;;;;6.72;2.00;;;;;;;;;;4857199;29;20061;-64
2022/10/22 11:33:46;;;;;;;6.03;1.35;;;;;;;;;;4878100;29;20053;-64
2022/10/22 11:36:13;;;;;;;6.03;1.33;;;;;;;;;;4877223;29;20049;-64
2022/10/22 11:38:39;;;;;;;5.75;1.20;;;;;;;;;;4878588;29;20056;-63
2022/10/22 11:41:10;;;;;;;4.88;1.20;;;;;;;;;;4878554;29;20045;-63
2022/10/22 11:43:56;;;;;;;7.13;1.40;;;;;;;;;;4876465;29;20052;-64
2022/10/22 11:46:23;;;;;;;4.85;1.10;;;;;;;;;;4862375;29;20517;-65
2022/10/22 11:49:16;;;;;;;5.15;1.02;;;;;;;;;;4878312;29;20053;-65
2022/10/22 11:51:46;;;;;;;4.85;1.20;;;;;;;;;;4878260;29;20506;-65
2022/10/22 11:54:28;;;;;;;2.28;1.02;;;;;;;;;;4878852;29;20056;-65
2022/10/22 11:57:31;;;;;;;5.47;1.27;;;;;;;;;;4880277;29;20080;-65
2022/10/22 11:59:59;;;;;;;4.65;1.73;;;;;;;;;;4843473;29;20086;-64
2022/10/22 12:02:38;;;;;;;7.25;1.20;;;;;;;;;;4873066;29;20057;-64
2022/10/22 12:05:17;;;;;;;7.05;1.48;;;;;;;;;;4878568;29;20053;-63
2022/10/22 12:07:53;;;;;;;3.00;1.15;;;;;;;;;;4878282;29;20049;-63
2022/10/22 12:10:21;;;;;;;5.65;1.58;;;;;;;;;;4876740;29;20494;-63
2022/10/22 12:13:00;;;;;;;3.05;1.25;;;;;;;;;;4879420;29;20045;-63
2022/10/22 12:15:27;;;;;;;5.90;1.63;;;;;;;;;;4880489;29;20067;-63
2022/10/22 12:18:00;;;;;;;5.38;1.02;;;;;;;;;;4881610;29;20073;-64
2022/10/22 12:20:27;;;;;;;;;;;;;;;;;;4880753;29;20049;-63
2022/10/22 12:22:54;;;;;;;8.10;1.30;;;;;;;;;;4879705;29;19931;-64
2022/10/22 12:25:21;;;;;;;6.88;1.90;;;;;;;;;;4880928;29;20049;-64
2022/10/22 12:27:53;;;;;;;3.55;1.20;;;;;;;;;;4881427;29;20105;-63
2022/10/22 12:30:24;;;;;;;3.13;1.05;;;;;;;;;;4880873;29;20053;-64
2022/10/22 12:32:53;;;;;;;5.63;2.30;;;;;;;;;;4879666;29;20044;-63
2022/10/22 12:35:21;;;;;;;6.20;2.30;;;;;;;;;;4880786;29;20056;-63
2022/10/22 12:37:51;;;;;;;5.30;1.95;;;;;;;;;;4880749;29;20045;-63
2022/10/22 12:40:22;;;;;;;5.43;1.85;;;;;;;;;;4881965;29;20060;-62
2022/10/22 12:42:50;;;;;;;6.78;1.95;;;;;;;;;;4880972;29;20045;-63
2022/10/22 12:45:17;;;;;;;7.68;2.17;;;;;;;;;;4881940;29;20498;-63
2022/10/22 12:47:47;;;;;;;7.30;2.45;;;;;;;;;;4881823;29;20046;-64
2022/10/22 12:50:18;;;;;;;3.90;1.60;;;;;;;;;;4880662;29;20045;-64
2022/10/22 12:52:46;;;;;;;5.65;2.08;;;;;;;;;;4880517;29;20506;-64
2022/10/22 12:55:16;;;;;;;3.28;1.60;;;;;;;;;;4882495;29;20093;-63
2022/10/22 12:57:45;;;;;;;3.58;1.80;;;;;;;;;;4880661;29;20093;-64
2022/10/22 13:00:22;;;;;;;4.40;2.03;;;;;;;;;;4880965;29;20049;-64
2022/10/22 13:02:48;;;;;;;7.68;2.28;;;;;;;;;;4880169;29;20049;-63
2022/10/22 13:05:18;;;;;;;4.28;1.35;;;;;;;;;;4880490;29;20049;-63
2022/10/22 13:07:52;;;;;;;7.85;1.63;;;;;;;;;;4865071;29;20052;-63
2022/10/22 13:10:18;;;;;;;3.67;1.30;;;;;;;;;;4880421;29;20068;-63
2022/10/22 13:12:49;;;;;;;4.93;1.60;;;;;;;;;;4879783;29;20093;-63
2022/10/22 13:15:18;;;;;;;2.67;1.50;;;;;;;;;;4880462;29;20056;-63
2022/10/22 13:17:46;;;;;;;4.15;1.55;;;;;;;;;;4879479;29;20044;-63
2022/10/22 13:20:19;;;;;;;4.35;1.38;;;;;;;;;;4880769;29;20049;-61
2022/10/22 13:22:46;;;;;;;;;;;;;;;;;;4878944;29;20064;-61
2022/10/22 13:25:12;;;;;;;5.28;1.55;;;;;;;;;;4880333;29;19923;-62
2022/10/22 13:27:45;;;;;;;9.88;2.90;;;;;;;;;;4864238;29;20109;-62
2022/10/22 13:30:22;;;;;;;7.35;1.95;;;;;;;;;;4879628;29;20105;-61
2022/10/22 13:32:53;;;;;;;4.38;1.20;;;;;;;;;;4880154;29;20612;-62
2022/10/22 13:35:22;;;;;;;6.13;2.53;;;;;;;;;;4879366;29;20049;-63
2022/10/22 13:37:48;;;;;;;4.38;1.42;;;;;;;;;;4879797;29;20164;-63
2022/10/22 13:40:15;;;;;;;3.60;1.60;;;;;;;;;;4880052;29;20045;-63
2022/10/22 13:42:41;;;;;;;4.00;1.05;;;;;;;;;;4877915;29;20053;-63
2022/10/22 13:45:08;;;;;;;5.10;2.17;;;;;;;;;;4879919;29;20460;-63
2022/10/22 13:47:34;;;;;;;1.63;1.15;;;;;;;;;;4879797;29;20097;-63
2022/10/22 13:50:02;;;;;;;3.45;1.35;;;;;;;;;;4879700;29;20427;-63
2022/10/22 13:52:37;;;;;;;7.35;2.13;;;;;;;;;;4862594;29;20048;-63
2022/10/22 13:55:16;;;;;;;3.92;1.70;;;;;;;;;;4878566;29;20049;-63
2022/10/22 13:57:43;;;;;;;6.63;1.67;;;;;;;;;;4879797;29;20041;-64
2022/10/22 14:00:13;;;;;;;4.05;1.23;;;;;;;;;;4879575;29;20045;-63
2022/10/22 14:02:40;;;;;;;4.82;1.45;;;;;;;;;;4879837;29;20399;-64
2022/10/22 14:05:08;;;;;;;3.13;1.10;;;;;;;;;;4878503;29;20064;-64
2022/10/22 14:07:35;;;;;;;5.30;1.60;;;;;;;;;;4878206;29;20049;-64
2022/10/22 14:10:02;;;;;;;3.40;1.20;;;;;;;;;;4878553;29;20049;-64
2022/10/22 14:12:29;;;;;;;5.45;2.25;;;;;;;;;;4877645;29;20053;-63
2022/10/22 14:14:55;;;;;;;3.20;0.90;;;;;;;;;;4879346;29;20109;-64
2022/10/22 14:17:22;;;;;;;6.40;2.28;;;;;;;;;;4882983;29;20044;-63
2022/10/22 14:19:49;;;;;;;3.15;2.05;;;;;;;;;;4896863;29;20120;-64
2022/10/22 14:22:16;;;;;;;2.22;1.02;;;;;;;;;;4895822;29;20076;-64
2022/10/22 14:24:43;;;;;;;8.75;2.10;;;;;;;;;;4897353;29;20128;-63
2022/10/22 14:27:11;;;;;;;6.93;2.28;;;;;;;;;;4898772;29;20565;-64
2022/10/22 14:29:37;;;;;;;4.15;1.30;;;;;;;;;;4897230;29;20059;-63
2022/10/22 14:32:20;;;;;;;5.50;3.30;;;;;;;;;;4880296;29;20045;-63
2022/10/22 14:34:47;;;;;;;2.03;1.33;;;;;;;;;;4897249;29;20041;-63
2022/10/22 14:37:15;;;;;;;4.45;1.40;;;;;;;;;;4897752;29;20119;-64
2022/10/22 14:39:42;;;;;;;5.45;1.75;;;;;;;;;;4880874;29;20044;-64
2022/10/22 14:42:10;;;;;;;7.15;2.35;;;;;;;;;;4895551;29;20502;-64
2022/10/22 14:44:36;;;;;;;2.08;1.13;;;;;;;;;;4896223;29;20048;-65
2022/10/22 14:47:03;;;;;;;4.05;1.60;;;;;;;;;;4897910;29;20040;-66
2022/10/22 14:49:29;;;;;;;2.72;1.30;;;;;;;;;;4897220;29;20060;-64
2022/10/22 14:51:55;;;;;;;4.60;1.63;;;;;;;;;;4895822;29;20108;-64
2022/10/22 14:54:22;;;;;;;3.78;1.70;;;;;;;;;;4896944;29;20096;-64
2022/10/22 14:56:48;;;;;;;4.18;1.30;;;;;;;;;;4896092;29;20055;-64
2022/10/22 14:59:15;;;;;;;3.80;1.95;;;;;;;;;;4897056;29;20528;-64
2022/10/22 15:01:41;;;;;;;4.47;2.20;;;;;;;;;;4895709;29;20052;-65